Time;durP1;ratioP1;P1;durP2;ratioP2;P2;SDS_P1;SDS_P2;PMS_P1;PMS_P2;Temp;Humidity;BMP_temperature;BMP_pressure;BME280_temperature;BME280_humidity;BME280_pressure;Samples;Min_cycle;Max_cycle;Signal;HPM_P1;HPM_P2
2021/04/15 00:02:04;;;;;;;3.30;1.27;;;4.40;99.90;;;;;;5021387;28;20057;-70
2021/04/15 00:04:29;;;;;;;5.93;1.58;;;4.40;99.90;;;;;;5013621;28;20049;-71
2021/04/15 00:06:55;;;;;;;5.57;1.40;;;4.50;99.90;;;;;;5017002;28;20037;-72
2021/04/15 00:09:22;;;;;;;5.25;0.98;;;4.60;99.90;;;;;;5015701;28;20124;-71
2021/04/15 00:11:49;;;;;;;5.65;0.82;;;4.70;99.90;;;;;;5017038;28;20026;-71
2021/04/15 00:14:17;;;;;;;3.92;1.60;;;4.80;99.90;;;;;;5015865;28;20033;-72
2021/04/15 00:16:43;;;;;;;1.98;1.27;;;4.80;99.90;;;;;;5016203;28;20038;-71
2021/04/15 00:19:10;;;;;;;3.90;0.47;;;4.90;99.90;;;;;;4998499;28;20053;-71
2021/04/15 00:21:35;;;;;;;0.55;0.22;;;4.80;99.90;;;;;;5014760;28;20068;-71
2021/04/15 00:24:01;;;;;;;1.20;0.68;;;4.80;99.90;;;;;;5015853;28;20428;-71
2021/04/15 00:26:28;;;;;;;0.77;0.32;;;4.70;99.90;;;;;;5014320;28;20091;-71
2021/04/15 00:28:55;;;;;;;0.73;0.30;;;4.50;99.90;;;;;;5015583;28;20439;-72
2021/04/15 00:31:22;;;;;;;4.03;0.35;;;4.50;99.90;;;;;;5013823;28;20469;-71
2021/04/15 00:33:48;;;;;;;0.57;0.20;;;4.40;99.90;;;;;;5015295;28;20149;-71
2021/04/15 00:36:14;;;;;;;0.55;0.30;;;4.40;99.90;;;;;;5015195;28;20041;-71
2021/04/15 00:38:40;;;;;;;0.90;0.30;;;4.40;99.90;;;;;;5013648;28;20025;-71
2021/04/15 00:41:08;;;;;;;0.10;0.00;;;4.30;99.90;;;;;;5016098;28;20559;-71
2021/04/15 00:43:37;;;;;;;3.53;0.90;;;4.20;99.90;;;;;;5013872;28;20113;-71
2021/04/15 00:46:21;;;;;;;0.52;0.30;;;4.20;99.90;;;;;;4998247;28;20468;-71
2021/04/15 00:48:46;;;;;;;2.33;1.05;;;4.20;99.90;;;;;;5015456;28;20029;-71
2021/04/15 00:51:23;;;;;;;1.25;0.82;;;4.10;99.90;;;;;;5014345;28;20048;-71
2021/04/15 00:53:53;;;;;;;2.80;0.57;;;4.00;99.90;;;;;;5015357;28;20351;-71
2021/04/15 00:56:19;;;;;;;0.20;0.10;;;3.90;99.90;;;;;;5011798;28;20030;-71
2021/04/15 00:58:45;;;;;;;1.10;0.20;;;3.80;99.90;;;;;;5013889;28;20451;-72
2021/04/15 01:01:11;;;;;;;1.02;0.30;;;3.70;99.90;;;;;;5015473;28;20116;-72
2021/04/15 01:03:38;;;;;;;2.53;0.25;;;3.60;99.90;;;;;;4994464;28;20105;-72
2021/04/15 01:06:06;;;;;;;1.27;0.25;;;3.50;99.90;;;;;;5017225;28;20164;-71
2021/04/15 01:08:32;;;;;;;2.45;0.30;;;3.50;99.90;;;;;;4995651;28;20030;-70
2021/04/15 01:11:12;;;;;;;0.70;0.22;;;3.40;99.90;;;;;;4999741;28;20112;-71
2021/04/15 01:14:12;;;;;;;0.88;0.25;;;3.30;99.90;;;;;;4994446;28;20038;-71
2021/04/15 01:16:44;;;;;;;1.80;0.10;;;3.30;99.90;;;;;;5010049;28;20125;-71
2021/04/15 01:19:46;;;;;;;3.55;0.30;;;3.20;99.90;;;;;;5013627;28;20033;-71
2021/04/15 01:22:27;;;;;;;0.85;0.20;;;3.10;99.90;;;;;;5011848;28;20029;-71
2021/04/15 01:25:24;;;;;;;0.88;0.30;;;3.10;99.90;;;;;;5011434;28;20037;-71
2021/04/15 01:28:43;;;;;;;3.60;0.47;;;3.10;99.90;;;;;;5014561;28;20110;-71
2021/04/15 01:31:20;;;;;;;1.20;0.20;;;3.00;99.90;;;;;;4957933;28;20074;-70
2021/04/15 01:34:11;;;;;;;0.63;0.40;;;3.00;99.90;;;;;;5013508;28;20353;-71
2021/04/15 01:36:45;;;;;;;0.88;0.30;;;2.90;99.90;;;;;;5016155;28;20779;-71
2021/04/15 01:39:22;;;;;;;2.63;0.50;;;2.90;99.90;;;;;;5010418;28;20139;-71
2021/04/15 01:41:59;;;;;;;3.17;0.30;;;2.90;99.90;;;;;;4992792;28;20045;-71
2021/04/15 01:44:38;;;;;;;2.03;0.57;;;2.90;99.90;;;;;;5012785;28;20578;-71
2021/04/15 01:47:09;;;;;;;3.40;0.30;;;2.90;99.90;;;;;;5009593;28;20038;-71
2021/04/15 01:49:36;;;;;;;;;;;2.80;99.90;;;;;;5007831;28;20033;-71
2021/04/15 01:52:07;;;;;;;0.93;0.32;;;2.80;99.90;;;;;;5007873;28;19921;-71
2021/04/15 01:54:47;;;;;;;2.80;0.43;;;2.80;99.90;;;;;;5008145;28;20037;-72
2021/04/15 01:57:25;;;;;;;2.78;0.35;;;2.90;99.90;;;;;;5011438;28;20125;-71
2021/04/15 01:59:58;;;;;;;2.05;0.40;;;3.00;99.90;;;;;;5012399;28;20395;-72
2021/04/15 02:02:35;;;;;;;1.48;0.77;;;3.00;99.90;;;;;;4998744;28;20034;-70
2021/04/15 02:05:09;;;;;;;1.05;0.38;;;3.10;99.90;;;;;;4991703;28;20033;-71
2021/04/15 02:07:40;;;;;;;2.30;0.50;;;3.10;99.90;;;;;;5010596;28;20113;-72
2021/04/15 02:10:09;;;;;;;1.27;0.35;;;3.10;99.90;;;;;;5015145;28;20030;-71
2021/04/15 02:12:38;;;;;;;10.77;1.00;;;3.10;99.90;;;;;;5013800;28;20092;-71
2021/04/15 02:15:23;;;;;;;2.67;0.70;;;3.10;99.90;;;;;;5019953;28;20049;-72
2021/04/15 02:17:49;;;;;;;1.85;0.98;;;3.00;99.90;;;;;;4999851;28;20032;-72
2021/04/15 02:20:18;;;;;;;3.83;0.75;;;3.00;99.90;;;;;;5018723;28;20204;-71
2021/04/15 02:23:12;;;;;;;1.95;0.90;;;2.90;99.90;;;;;;5000055;28;20033;-72
2021/04/15 02:26:06;;;;;;;6.78;1.77;;;2.90;99.90;;;;;;5000333;28;20052;-71
2021/04/15 02:28:48;;;;;;;5.63;1.52;;;2.90;99.90;;;;;;4996511;28;20059;-72
2021/04/15 02:31:18;;;;;;;5.18;1.67;;;2.90;99.90;;;;;;5015026;28;20041;-72
2021/04/15 02:33:53;;;;;;;;;;;2.80;99.90;;;;;;5000374;28;20041;-72
2021/04/15 02:36:22;;;;;;;5.05;1.50;;;2.70;99.90;;;;;;5015242;28;19929;-72
2021/04/15 02:38:47;;;;;;;7.22;2.20;;;2.70;99.90;;;;;;5017792;28;20483;-71
2021/04/15 02:41:18;;;;;;;5.72;2.03;;;2.70;99.90;;;;;;5014356;28;20029;-71
2021/04/15 02:43:49;;;;;;;6.40;1.70;;;2.60;99.90;;;;;;5016647;28;20033;-71
2021/04/15 02:46:17;;;;;;;;;;;2.60;99.90;;;;;;5018480;28;20041;-72
2021/04/15 02:48:46;;;;;;;9.65;2.67;;;2.60;99.90;;;;;;5014544;28;19951;-71
2021/04/15 02:51:23;;;;;;;7.80;2.30;;;2.50;99.90;;;;;;5015840;28;20034;-71
2021/04/15 02:53:55;;;;;;;7.78;2.05;;;2.50;99.90;;;;;;5014850;28;20125;-71
2021/04/15 02:56:38;;;;;;;7.15;1.92;;;2.40;99.90;;;;;;5018381;28;20084;-72
2021/04/15 02:59:13;;;;;;;7.93;2.38;;;2.40;99.90;;;;;;5010909;28;20030;-71
2021/04/15 03:01:46;;;;;;;8.82;2.00;;;2.40;99.90;;;;;;5016649;28;20042;-71
2021/04/15 03:04:19;;;;;;;8.35;3.50;;;2.40;99.90;;;;;;5017762;28;20542;-71
2021/04/15 03:06:46;;;;;;;6.25;2.40;;;2.40;99.90;;;;;;5017167;28;20110;-72
2021/04/15 03:09:14;;;;;;;22.80;4.25;;;2.40;99.90;;;;;;5016265;28;20029;-72
2021/04/15 03:11:49;;;;;;;5.07;2.10;;;2.40;99.90;;;;;;5020312;28;20610;-70
2021/04/15 03:14:25;;;;;;;4.35;1.88;;;2.50;99.90;;;;;;5017111;28;20033;-71
2021/04/15 03:16:58;;;;;;;8.18;2.88;;;2.50;99.90;;;;;;4999250;28;20084;-71
2021/04/15 03:19:30;;;;;;;4.05;1.73;;;2.50;99.90;;;;;;5013601;28;20029;-70
2021/04/15 03:22:11;;;;;;;6.47;2.42;;;2.50;99.90;;;;;;5011776;28;20061;-70
2021/04/15 03:24:43;;;;;;;9.38;2.67;;;2.60;99.90;;;;;;5012460;28;20557;-71
2021/04/15 03:27:33;;;;;;;5.70;2.83;;;2.50;99.90;;;;;;5019508;28;20033;-71
2021/04/15 03:30:24;;;;;;;5.65;2.40;;;2.50;99.90;;;;;;5011904;28;20384;-71
2021/04/15 03:33:14;;;;;;;5.47;2.90;;;2.50;99.90;;;;;;5016050;28;20103;-71
2021/04/15 03:35:52;;;;;;;16.45;3.10;;;2.50;99.90;;;;;;5007359;28;20041;-71
2021/04/15 03:38:25;;;;;;;7.20;2.70;;;2.40;99.90;;;;;;5015005;28;20129;-72
2021/04/15 03:40:56;;;;;;;6.40;2.67;;;2.40;99.90;;;;;;5017032;28;20064;-71
2021/04/15 03:43:33;;;;;;;12.30;2.85;;;2.30;99.90;;;;;;5014631;28;20041;-71
2021/04/15 03:46:05;;;;;;;6.18;3.03;;;2.30;99.90;;;;;;5008263;28;20034;-72
2021/04/15 03:48:45;;;;;;;10.63;3.40;;;2.30;99.90;;;;;;5010806;28;20056;-71
2021/04/15 03:51:16;;;;;;;8.13;3.25;;;2.20;99.90;;;;;;4997086;28;20034;-71
2021/04/15 03:53:50;;;;;;;;;;;2.20;99.90;;;;;;4997756;28;20066;-70
2021/04/15 03:56:37;;;;;;;5.85;2.67;;;2.20;99.90;;;;;;5014774;28;20442;-71
2021/04/15 03:59:10;;;;;;;8.98;2.40;;;2.10;99.90;;;;;;5009741;28;20385;-71
2021/04/15 04:01:45;;;;;;;11.13;3.33;;;2.00;99.90;;;;;;5016623;28;20034;-71
2021/04/15 04:04:30;;;;;;;9.30;2.47;;;2.00;99.90;;;;;;5015868;28;20057;-71
2021/04/15 04:07:01;;;;;;;7.03;2.75;;;2.00;99.90;;;;;;5010361;28;20381;-70
2021/04/15 04:09:41;;;;;;;6.00;3.15;;;2.00;99.90;;;;;;5015068;28;20030;-71
2021/04/15 04:12:10;;;;;;;7.38;3.08;;;1.90;99.90;;;;;;5014514;28;20048;-71
2021/04/15 04:14:55;;;;;;;10.95;3.35;;;1.90;99.90;;;;;;5013922;28;20048;-70
2021/04/15 04:17:41;;;;;;;9.45;3.10;;;1.90;99.90;;;;;;4999133;28;20053;-71
2021/04/15 04:20:08;;;;;;;10.68;4.38;;;1.90;99.90;;;;;;5015243;28;20395;-71
2021/04/15 04:22:55;;;;;;;9.00;3.15;;;1.80;99.90;;;;;;4997193;28;20475;-71
2021/04/15 04:25:52;;;;;;;6.63;2.83;;;1.80;99.90;;;;;;5012790;28;20084;-71
2021/04/15 04:28:21;;;;;;;8.10;2.78;;;1.80;99.90;;;;;;5013712;28;20483;-71
2021/04/15 04:31:16;;;;;;;9.48;3.03;;;1.80;99.90;;;;;;5009980;28;20034;-71
2021/04/15 04:33:46;;;;;;;14.18;3.42;;;1.80;99.90;;;;;;4997258;28;20104;-71
2021/04/15 04:36:13;;;;;;;4.93;2.20;;;1.90;99.90;;;;;;5003029;28;20041;-71
2021/04/15 04:38:39;;;;;;;7.80;3.28;;;2.00;99.90;;;;;;5012795;28;20135;-72
2021/04/15 04:41:44;;;;;;;8.48;3.05;;;2.10;99.90;;;;;;5014601;28;20029;-70
2021/04/15 04:44:17;;;;;;;8.15;3.20;;;2.20;99.90;;;;;;4976718;28;20052;-70
2021/04/15 04:46:50;;;;;;;7.70;3.58;;;2.30;99.90;;;;;;4999414;28;20036;-71
2021/04/15 04:49:35;;;;;;;7.53;2.80;;;2.40;99.90;;;;;;5014459;28;20040;-69
2021/04/15 04:52:11;;;;;;;13.55;3.28;;;2.40;99.90;;;;;;5008689;28;20578;-71
2021/04/15 04:54:39;;;;;;;10.05;3.00;;;2.40;99.90;;;;;;5014432;28;20030;-70
2021/04/15 04:57:36;;;;;;;10.00;3.63;;;2.40;99.90;;;;;;5012775;28;20042;-71
2021/04/15 05:00:11;;;;;;;10.35;3.22;;;2.30;99.90;;;;;;5005784;28;20046;-71
2021/04/15 05:02:37;;;;;;;8.80;3.10;;;2.30;99.90;;;;;;4983694;28;20038;-71
2021/04/15 05:05:06;;;;;;;6.30;3.20;;;2.30;99.90;;;;;;5001765;28;20044;-71
2021/04/15 05:07:35;;;;;;;9.07;3.28;;;2.20;99.90;;;;;;5000800;28;20037;-72
2021/04/15 05:10:01;;;;;;;5.60;3.00;;;2.20;99.90;;;;;;5005616;28;20488;-71
2021/04/15 05:12:34;;;;;;;4.93;2.97;;;2.20;99.90;;;;;;5008470;28;20034;-71
2021/04/15 05:15:01;;;;;;;6.90;2.45;;;2.20;99.90;;;;;;5009383;28;20077;-71
2021/04/15 05:17:34;;;;;;;8.70;3.25;;;2.30;99.90;;;;;;5008882;28;20053;-70
2021/04/15 05:20:04;;;;;;;5.95;2.83;;;2.30;99.90;;;;;;5008563;28;20038;-70
2021/04/15 05:22:36;;;;;;;4.55;2.30;;;2.30;99.90;;;;;;5008399;28;20033;-70
2021/04/15 05:25:23;;;;;;;7.82;3.00;;;2.40;99.90;;;;;;4992591;28;20032;-70
2021/04/15 05:27:51;;;;;;;5.32;2.55;;;2.40;99.90;;;;;;5005798;28;20038;-71
2021/04/15 05:30:35;;;;;;;6.20;2.90;;;2.40;99.90;;;;;;5008600;28;20034;-71
2021/04/15 05:33:04;;;;;;;5.80;2.50;;;2.40;99.90;;;;;;4989073;28;20037;-71
2021/04/15 05:35:38;;;;;;;7.90;2.47;;;2.40;99.90;;;;;;4992853;28;20056;-71
2021/04/15 05:38:06;;;;;;;8.90;2.80;;;2.40;99.90;;;;;;5006602;28;20030;-71
2021/04/15 05:40:33;;;;;;;5.80;2.90;;;2.50;99.90;;;;;;5010163;28;20416;-72
2021/04/15 05:43:26;;;;;;;5.60;2.78;;;2.60;99.90;;;;;;5008342;28;20042;-73
2021/04/15 05:46:00;;;;;;;6.35;2.75;;;2.80;99.90;;;;;;4986282;28;20043;-73
2021/04/15 05:48:27;;;;;;;7.50;2.47;;;2.90;99.90;;;;;;5009554;28;20041;-72
2021/04/15 05:50:56;;;;;;;9.35;2.72;;;3.10;99.90;;;;;;5013350;28;20040;-72
2021/04/15 05:53:36;;;;;;;4.95;2.80;;;3.40;99.90;;;;;;5013822;28;20112;-72
2021/04/15 05:56:12;;;;;;;3.72;1.90;;;4.40;99.90;;;;;;5014187;28;20377;-72
2021/04/15 05:58:54;;;;;;;7.05;1.88;;;5.90;99.90;;;;;;5013311;28;20107;-72
2021/04/15 06:01:36;;;;;;;4.07;1.77;;;7.50;99.90;;;;;;5006474;28;20141;-72
2021/04/15 06:04:12;;;;;;;3.67;1.70;;;9.00;99.90;;;;;;5006377;28;20052;-72
2021/04/15 06:06:40;;;;;;;7.57;1.55;;;10.10;99.90;;;;;;5013329;28;20368;-71
2021/04/15 06:09:07;;;;;;;6.07;2.20;;;10.80;99.90;;;;;;4990673;28;20042;-72
2021/04/15 06:11:49;;;;;;;7.18;1.67;;;11.40;99.90;;;;;;4996527;28;20076;-72
2021/04/15 06:14:27;;;;;;;6.43;1.50;;;11.50;99.90;;;;;;5010327;28;20042;-73
2021/04/15 06:17:14;;;;;;;7.55;1.77;;;10.70;99.90;;;;;;5010823;28;20037;-72
2021/04/15 06:19:47;;;;;;;8.85;1.88;;;9.80;99.90;;;;;;5013160;28;21315;-72
2021/04/15 06:22:29;;;;;;;5.88;1.52;;;8.90;99.90;;;;;;5011045;28;20065;-70
2021/04/15 06:25:11;;;;;;;5.40;1.85;;;8.20;99.90;;;;;;5009264;28;20037;-71
2021/04/15 06:27:36;;;;;;;6.40;1.90;;;7.70;99.90;;;;;;5014562;28;20650;-71
2021/04/15 06:30:18;;;;;;;9.15;2.33;;;7.50;99.90;;;;;;5009075;28;20030;-71
2021/04/15 06:33:00;;;;;;;4.45;1.80;;;7.40;99.90;;;;;;5011678;28;20116;-71
2021/04/15 06:35:31;;;;;;;4.80;1.50;;;7.40;99.90;;;;;;5002453;28;20037;-71
2021/04/15 06:38:15;;;;;;;4.10;1.63;;;8.70;99.90;;;;;;5008208;28;20025;-72
2021/04/15 06:41:05;;;;;;;2.28;1.10;;;10.20;99.90;;;;;;5010830;28;20041;-71
2021/04/15 06:43:53;;;;;;;4.05;1.45;;;12.00;99.90;;;;;;5009964;28;20030;-72
2021/04/15 06:46:42;;;;;;;3.83;1.40;;;13.60;99.90;;;;;;4993168;28;20042;-72
2021/04/15 06:49:34;;;;;;;3.97;0.98;;;14.70;93.30;;;;;;5011284;28;20096;-72
2021/04/15 06:52:03;;;;;;;5.88;1.35;;;15.40;80.60;;;;;;5007170;28;20041;-71
2021/04/15 06:54:54;;;;;;;5.78;1.60;;;15.90;78.20;;;;;;5013314;28;20034;-71
2021/04/15 06:57:41;;;;;;;3.45;1.00;;;16.70;72.00;;;;;;5010748;28;20064;-72
2021/04/15 07:00:35;;;;;;;2.90;0.75;;;16.70;64.90;;;;;;5009473;28;20073;-72
2021/04/15 07:03:19;;;;;;;2.40;0.82;;;16.70;67.50;;;;;;5008501;28;20048;-71
2021/04/15 07:05:53;;;;;;;3.03;0.60;;;16.70;64.80;;;;;;5008025;28;20395;-72
2021/04/15 07:08:34;;;;;;;3.13;1.08;;;16.60;60.90;;;;;;5008894;28;20132;-72
2021/04/15 07:11:05;;;;;;;7.72;1.17;;;15.40;65.10;;;;;;5011762;28;20044;-72
2021/04/15 07:13:52;;;;;;;5.57;0.75;;;14.50;68.20;;;;;;5011481;28;20037;-71
2021/04/15 07:16:33;;;;;;;3.45;0.47;;;13.30;72.90;;;;;;5009130;28;20684;-72
2021/04/15 07:19:27;;;;;;;4.43;0.70;;;12.00;81.90;;;;;;5009986;28;20078;-72
2021/04/15 07:22:23;;;;;;;4.03;0.80;;;11.50;89.60;;;;;;5007685;28;20041;-71
2021/04/15 07:25:24;;;;;;;3.65;0.77;;;11.50;91.70;;;;;;5007703;28;20098;-71
2021/04/15 07:28:04;;;;;;;3.45;0.60;;;11.10;93.10;;;;;;5009080;28;20991;-71
2021/04/15 07:31:03;;;;;;;3.90;1.25;;;10.40;96.00;;;;;;5008984;28;20073;-71
2021/04/15 07:33:54;;;;;;;6.28;1.13;;;9.80;99.90;;;;;;5012100;28;20041;-73
2021/04/15 07:36:59;;;;;;;4.13;0.75;;;8.90;99.90;;;;;;5010160;28;20043;-74
2021/04/15 07:40:00;;;;;;;1.73;0.60;;;8.30;99.90;;;;;;4991047;28;20029;-70
2021/04/15 07:42:31;;;;;;;3.13;0.93;;;7.90;99.90;;;;;;4993209;28;20042;-73
2021/04/15 07:45:02;;;;;;;6.28;0.75;;;7.80;99.90;;;;;;5011498;28;20073;-70
2021/04/15 07:48:03;;;;;;;3.22;0.88;;;7.90;99.90;;;;;;5010455;28;21099;-71
2021/04/15 07:50:54;;;;;;;1.73;0.55;;;8.00;99.90;;;;;;4985966;28;20041;-71
2021/04/15 07:53:30;;;;;;;0.82;0.30;;;8.20;99.90;;;;;;4990595;28;20128;-72
2021/04/15 07:56:16;;;;;;;0.85;0.30;;;8.40;99.90;;;;;;5008264;28;20081;-72
2021/04/15 07:59:05;;;;;;;2.17;0.43;;;8.60;99.90;;;;;;5006840;28;20045;-71
2021/04/15 08:01:56;;;;;;;1.75;0.50;;;8.70;99.90;;;;;;5009073;28;20442;-72
2021/04/15 08:04:39;;;;;;;1.55;0.40;;;9.00;99.90;;;;;;5012332;28;20133;-71
2021/04/15 08:07:29;;;;;;;1.40;0.50;;;9.20;99.90;;;;;;5007882;28;20488;-71
2021/04/15 08:10:30;;;;;;;1.02;0.32;;;9.10;99.90;;;;;;5006993;28;20042;-71
2021/04/15 08:13:29;;;;;;;1.30;0.70;;;9.00;99.90;;;;;;5008047;28;20041;-71
2021/04/15 08:16:23;;;;;;;3.58;0.68;;;9.10;99.90;;;;;;4990352;28;20057;-72
2021/04/15 08:19:12;;;;;;;2.72;0.90;;;9.50;99.90;;;;;;5007329;28;20044;-72
2021/04/15 08:21:43;;;;;;;3.30;0.65;;;9.90;99.90;;;;;;5006430;28;20041;-70
2021/04/15 08:24:17;;;;;;;1.55;0.65;;;10.10;99.90;;;;;;5007517;28;20065;-71
2021/04/15 08:27:10;;;;;;;3.40;0.45;;;10.10;99.90;;;;;;5006150;28;20752;-72
2021/04/15 08:30:04;;;;;;;1.45;0.45;;;10.00;99.90;;;;;;4993079;28;20046;-71
2021/04/15 08:33:17;;;;;;;4.45;1.13;;;9.70;99.90;;;;;;5010799;28;20033;-71
2021/04/15 08:36:11;;;;;;;1.25;0.40;;;9.30;99.90;;;;;;4968587;28;20086;-72
2021/04/15 08:39:08;;;;;;;1.95;0.60;;;8.90;99.90;;;;;;5007495;28;20492;-71
2021/04/15 08:42:12;;;;;;;1.73;0.50;;;8.50;99.90;;;;;;4992442;28;20488;-71
2021/04/15 08:44:55;;;;;;;1.85;0.63;;;8.40;99.90;;;;;;5005265;28;20354;-71
2021/04/15 08:47:51;;;;;;;1.20;0.55;;;8.40;99.90;;;;;;5009436;28;20099;-70
2021/04/15 08:50:24;;;;;;;1.10;0.55;;;8.30;99.90;;;;;;5008193;28;20049;-71
2021/04/15 08:53:06;;;;;;;3.65;0.60;;;8.40;99.90;;;;;;5010685;28;20061;-71
2021/04/15 08:56:03;;;;;;;1.38;0.55;;;8.50;99.90;;;;;;5012506;28;20070;-71
2021/04/15 08:58:51;;;;;;;2.58;0.57;;;8.60;99.90;;;;;;5008077;28;20085;-71
2021/04/15 09:01:34;;;;;;;4.88;0.80;;;8.50;99.90;;;;;;5008828;28;20499;-71
2021/04/15 09:04:12;;;;;;;1.30;0.55;;;8.30;99.90;;;;;;5006283;28;20034;-72
2021/04/15 09:07:14;;;;;;;1.30;0.68;;;8.10;99.90;;;;;;5004878;28;20470;-72
2021/04/15 09:10:06;;;;;;;1.80;0.77;;;7.80;99.90;;;;;;4965313;28;20037;-71
2021/04/15 09:12:49;;;;;;;3.83;0.77;;;7.80;99.90;;;;;;5002962;28;20564;-72
2021/04/15 09:15:45;;;;;;;2.72;0.70;;;7.60;99.90;;;;;;5009425;28;20034;-71
2021/04/15 09:18:33;;;;;;;1.70;0.80;;;7.60;99.90;;;;;;5008801;28;20701;-70
2021/04/15 09:21:07;;;;;;;3.47;0.60;;;7.70;99.90;;;;;;5006552;28;20065;-71
2021/04/15 09:23:34;;;;;;;1.15;0.68;;;7.90;99.90;;;;;;5017692;28;20411;-72
2021/04/15 09:26:05;;;;;;;1.23;0.63;;;8.30;99.90;;;;;;4994799;28;20038;-70
2021/04/15 09:28:35;;;;;;;0.85;0.40;;;8.50;99.90;;;;;;5012338;28;20041;-70
2021/04/15 09:31:15;;;;;;;1.17;0.70;;;8.60;99.90;;;;;;5012893;28;20053;-70
2021/04/15 09:33:59;;;;;;;0.43;0.22;;;8.80;99.90;;;;;;5010298;28;20033;-70
2021/04/15 09:36:43;;;;;;;1.00;0.50;;;8.90;99.90;;;;;;5013128;28;20437;-71
2021/04/15 09:39:41;;;;;;;0.60;0.40;;;9.10;99.90;;;;;;5011226;28;20099;-71
2021/04/15 09:42:25;;;;;;;0.22;0.20;;;9.20;99.90;;;;;;5011231;28;20495;-70
2021/04/15 09:45:13;;;;;;;0.70;0.40;;;9.30;99.80;;;;;;5011721;28;20057;-72
2021/04/15 09:48:00;;;;;;;2.28;0.38;;;9.30;99.90;;;;;;5009633;28;20029;-70
2021/04/15 09:50:48;;;;;;;2.28;0.38;;;9.40;99.10;;;;;;5010454;28;20046;-70
2021/04/15 09:53:34;;;;;;;2.15;0.50;;;9.40;99.70;;;;;;5012190;28;20031;-72
2021/04/15 09:56:13;;;;;;;1.55;0.80;;;9.70;98.70;;;;;;5017200;28;20050;-71
2021/04/15 09:59:14;;;;;;;0.70;0.50;;;9.90;98.20;;;;;;5008307;28;20033;-72
2021/04/15 10:01:47;;;;;;;4.78;0.50;;;10.00;98.20;;;;;;5003656;28;20076;-73
2021/04/15 10:04:27;;;;;;;0.55;0.40;;;10.00;97.50;;;;;;5002695;28;20038;-71
2021/04/15 10:07:04;;;;;;;3.67;0.38;;;10.00;97.70;;;;;;5007748;28;20562;-71
2021/04/15 10:09:51;;;;;;;1.00;0.68;;;10.10;97.90;;;;;;5008206;28;20121;-71
2021/04/15 10:12:29;;;;;;;1.70;0.55;;;9.90;96.00;;;;;;4993487;28;20208;-70
2021/04/15 10:15:00;;;;;;;3.45;0.82;;;9.60;97.00;;;;;;5011467;28;20087;-71
2021/04/15 10:17:35;;;;;;;0.98;0.40;;;9.30;97.50;;;;;;5007462;28;20045;-71
2021/04/15 10:20:22;;;;;;;1.15;0.38;;;9.10;96.60;;;;;;5009775;28;20030;-71
2021/04/15 10:23:09;;;;;;;0.63;0.20;;;9.10;97.60;;;;;;5012105;28;20240;-71
2021/04/15 10:25:40;;;;;;;1.20;0.30;;;9.30;97.10;;;;;;5010914;28;20054;-70
2021/04/15 10:28:27;;;;;;;1.00;0.40;;;9.50;94.10;;;;;;5008337;28;20072;-70
2021/04/15 10:31:23;;;;;;;4.68;0.38;;;9.50;95.70;;;;;;5006127;28;20705;-70
2021/04/15 10:34:13;;;;;;;2.35;0.60;;;9.30;94.50;;;;;;5003567;28;20044;-70
2021/04/15 10:36:53;;;;;;;0.90;0.30;;;9.10;95.30;;;;;;5001377;28;20049;-70
2021/04/15 10:39:55;;;;;;;1.00;0.40;;;9.00;95.60;;;;;;4985907;28;20499;-70
2021/04/15 10:42:30;;;;;;;1.23;0.60;;;9.10;96.80;;;;;;4983607;28;20129;-72
2021/04/15 10:45:16;;;;;;;1.10;0.50;;;9.00;97.20;;;;;;5005773;28;20077;-71
2021/04/15 10:48:01;;;;;;;1.88;0.60;;;8.90;97.50;;;;;;5001911;28;20511;-70
2021/04/15 10:50:58;;;;;;;0.47;0.35;;;9.00;99.70;;;;;;4982563;28;20030;-70
2021/04/15 10:54:04;;;;;;;0.60;0.20;;;9.20;98.40;;;;;;5001917;28;20045;-71
2021/04/15 10:56:42;;;;;;;0.43;0.20;;;9.30;94.50;;;;;;4907380;29;20529;-71
2021/04/15 10:59:36;;;;;;;0.73;0.47;;;9.10;94.10;;;;;;4913577;29;20046;-71
2021/04/15 11:02:28;;;;;;;4.90;0.70;;;9.10;94.20;;;;;;4984280;28;20026;-72
2021/04/15 11:05:14;;;;;;;0.85;0.38;;;8.90;94.40;;;;;;5007517;28;20112;-72
2021/04/15 11:07:39;;;;;;;1.48;0.80;;;9.00;93.50;;;;;;5008223;28;20033;-72
2021/04/15 11:10:19;;;;;;;1.88;0.50;;;9.00;94.10;;;;;;5011036;28;20148;-72
2021/04/15 11:12:45;;;;;;;1.57;0.30;;;9.10;91.40;;;;;;5013013;28;20066;-71
2021/04/15 11:15:22;;;;;;;0.63;0.13;;;9.10;91.60;;;;;;5012277;28;20129;-72
2021/04/15 11:17:50;;;;;;;1.42;0.52;;;9.40;91.70;;;;;;5008681;28;20104;-70
2021/04/15 11:20:28;;;;;;;2.42;0.20;;;9.70;91.20;;;;;;4996375;28;20034;-71
2021/04/15 11:23:23;;;;;;;1.05;0.30;;;9.90;88.70;;;;;;5010036;28;20488;-71
2021/04/15 11:25:51;;;;;;;1.92;0.20;;;10.00;81.70;;;;;;4991480;28;20092;-71
2021/04/15 11:28:23;;;;;;;1.55;0.20;;;10.10;82.20;;;;;;4997480;28;20057;-71
2021/04/15 11:31:00;;;;;;;1.65;0.40;;;10.50;80.10;;;;;;5010703;28;20033;-71
2021/04/15 11:33:50;;;;;;;1.95;0.35;;;10.70;73.90;;;;;;5015045;28;20535;-71
2021/04/15 11:36:23;;;;;;;0.98;0.30;;;11.00;72.20;;;;;;5014245;28;20037;-72
2021/04/15 11:38:51;;;;;;;0.63;0.20;;;11.30;71.30;;;;;;4995169;28;20037;-72
2021/04/15 11:41:21;;;;;;;1.38;0.50;;;11.50;68.70;;;;;;5014285;28;20048;-72
2021/04/15 11:43:48;;;;;;;1.63;0.30;;;11.50;67.00;;;;;;5012836;28;20042;-72
2021/04/15 11:46:33;;;;;;;0.63;0.20;;;11.30;66.00;;;;;;4995841;28;20050;-71
2021/04/15 11:49:09;;;;;;;1.85;0.40;;;10.90;67.90;;;;;;5009761;28;20040;-72
2021/04/15 11:52:13;;;;;;;0.52;0.20;;;10.80;67.60;;;;;;4985982;28;20033;-72
2021/04/15 11:54:52;;;;;;;1.30;0.50;;;10.70;70.00;;;;;;5009385;28;20499;-71
2021/04/15 11:57:31;;;;;;;3.60;0.30;;;10.60;71.50;;;;;;5010051;28;20049;-71
2021/04/15 11:59:57;;;;;;;2.65;0.30;;;10.80;70.40;;;;;;5009347;28;20065;-73
2021/04/15 12:02:30;;;;;;;2.78;0.30;;;10.80;72.40;;;;;;5007734;28;20076;-71
2021/04/15 12:05:22;;;;;;;0.95;0.50;;;11.00;75.10;;;;;;5010829;28;20049;-72
2021/04/15 12:08:05;;;;;;;1.98;0.40;;;10.80;74.20;;;;;;5013375;28;20440;-72
2021/04/15 12:10:34;;;;;;;2.28;0.85;;;10.70;77.20;;;;;;5009556;28;20364;-71
2021/04/15 12:13:18;;;;;;;1.27;0.40;;;10.70;75.20;;;;;;4997839;28;20438;-71
2021/04/15 12:15:51;;;;;;;2.92;0.63;;;10.40;76.40;;;;;;5012822;28;20115;-72
2021/04/15 12:18:29;;;;;;;0.55;0.25;;;10.30;76.20;;;;;;5011182;28;20129;-73
2021/04/15 12:21:01;;;;;;;0.50;0.30;;;10.30;77.60;;;;;;5011666;28;20037;-72
2021/04/15 12:23:31;;;;;;;0.85;0.50;;;10.50;77.80;;;;;;4991924;28;20049;-72
2021/04/15 12:26:02;;;;;;;2.03;0.40;;;10.50;76.30;;;;;;5010217;28;20116;-72
2021/04/15 12:28:34;;;;;;;0.63;0.43;;;10.60;76.90;;;;;;5009794;28;20030;-72
2021/04/15 12:31:11;;;;;;;2.17;0.60;;;10.60;76.50;;;;;;5009033;28;20321;-72
2021/04/15 12:33:44;;;;;;;2.97;0.35;;;10.60;75.40;;;;;;5012818;28;20037;-72
2021/04/15 12:36:39;;;;;;;1.38;0.50;;;10.50;76.20;;;;;;5010403;28;20275;-72
2021/04/15 12:39:13;;;;;;;1.45;0.45;;;10.40;76.30;;;;;;4998242;28;20041;-73
2021/04/15 12:41:39;;;;;;;2.95;0.45;;;10.30;74.60;;;;;;5010783;28;20052;-73
2021/04/15 12:44:29;;;;;;;1.17;0.45;;;10.30;75.60;;;;;;5009171;28;20492;-73
2021/04/15 12:46:56;;;;;;;;;;;10.30;75.50;;;;;;4986237;28;20091;-72
2021/04/15 12:49:25;;;;;;;1.55;0.60;;;10.20;75.90;;;;;;5014402;28;20341;-72
2021/04/15 12:51:59;;;;;;;1.25;0.35;;;10.20;75.90;;;;;;5005509;28;20038;-73
2021/04/15 12:54:30;;;;;;;3.33;0.50;;;10.20;75.50;;;;;;5003555;28;20038;-72
2021/04/15 12:57:02;;;;;;;1.40;0.50;;;10.20;76.60;;;;;;5011242;28;20478;-72
2021/04/15 12:59:32;;;;;;;1.83;0.30;;;10.30;75.20;;;;;;5005633;28;20045;-72
2021/04/15 13:01:59;;;;;;;1.92;0.47;;;10.40;77.10;;;;;;5014744;28;20559;-73
2021/04/15 13:04:30;;;;;;;1.70;0.40;;;10.50;76.50;;;;;;5008626;28;20598;-71
2021/04/15 13:07:26;;;;;;;4.47;0.68;;;10.60;73.20;;;;;;5010801;28;20045;-72
2021/04/15 13:10:13;;;;;;;1.42;0.60;;;10.60;73.50;;;;;;5009912;28;20041;-72
2021/04/15 13:12:43;;;;;;;1.05;0.40;;;10.70;73.10;;;;;;5009979;28;20384;-73
2021/04/15 13:15:24;;;;;;;1.67;0.52;;;10.80;70.80;;;;;;5010200;28;20068;-72
2021/04/15 13:17:54;;;;;;;0.77;0.30;;;10.80;69.10;;;;;;4987920;28;20046;-72
2021/04/15 13:20:19;;;;;;;0.68;0.20;;;10.90;67.00;;;;;;5010857;28;20077;-72
2021/04/15 13:22:50;;;;;;;0.73;0.30;;;11.00;64.90;;;;;;4990351;28;20476;-72
2021/04/15 13:25:26;;;;;;;2.75;0.60;;;11.00;64.60;;;;;;5009127;28;20247;-72
2021/04/15 13:27:58;;;;;;;2.17;0.50;;;11.00;64.60;;;;;;5005353;28;20034;-72
2021/04/15 13:30:23;;;;;;;1.20;0.40;;;11.10;63.30;;;;;;4989000;28;20045;-72
2021/04/15 13:33:12;;;;;;;3.47;0.50;;;11.10;64.30;;;;;;4991112;28;20896;-74
2021/04/15 13:35:55;;;;;;;1.77;0.60;;;11.10;63.80;;;;;;4988962;28;20037;-72
2021/04/15 13:38:27;;;;;;;2.75;0.40;;;11.10;63.80;;;;;;4992669;28;20044;-72
2021/04/15 13:40:56;;;;;;;1.23;0.50;;;10.90;63.80;;;;;;4985929;28;20041;-72
2021/04/15 13:43:55;;;;;;;3.47;0.40;;;10.90;64.20;;;;;;4990546;28;20411;-73
2021/04/15 13:48:57;;;;;;;1.20;0.60;;;10.60;66.20;;;;;;5009784;28;20037;-73
2021/04/15 13:51:33;;;;;;;1.35;0.30;;;10.60;66.70;;;;;;5007135;28;20219;-71
2021/04/15 13:54:13;;;;;;;1.42;0.50;;;10.70;66.10;;;;;;4993184;28;20609;-72
2021/04/15 13:56:53;;;;;;;1.03;0.40;;;10.80;63.90;;;;;;4993349;28;20047;-72
2021/04/15 13:59:31;;;;;;;2.13;0.47;;;11.00;61.60;;;;;;5006650;28;20480;-73